createdAt,value
2023-05-17T00:00:34.043Z,62.36
2023-05-17T00:01:34.031Z,61.71
2023-05-17T00:02:34.263Z,64.13
2023-05-17T00:03:34.013Z,61.55
2023-05-17T00:04:34.025Z,63.33
2023-05-17T00:05:34.003Z,62.52
2023-05-17T00:06:34.062Z,60.91
2023-05-17T00:07:34.982Z,63.16
2023-05-17T00:08:34.022Z,64.61
2023-05-17T00:09:34.055Z,60.91
2023-05-17T00:10:33.948Z,60.75
2023-05-17T00:11:34.002Z,62.84
2023-05-17T00:12:33.950Z,62.84
2023-05-17T00:13:33.903Z,61.71
2023-05-17T00:14:33.908Z,62.04
2023-05-17T00:15:33.878Z,61.39
2023-05-17T00:16:33.877Z,61.71
2023-05-17T00:17:33.904Z,63.00
2023-05-17T00:18:34.031Z,63.97
2023-05-17T00:19:33.856Z,63.49
2023-05-17T00:20:33.840Z,62.52
2023-05-17T00:21:33.825Z,63.00
2023-05-17T00:22:33.806Z,64.61
2023-05-17T00:23:33.788Z,63.81
2023-05-17T00:24:33.775Z,61.23
2023-05-17T00:25:33.759Z,62.04
2023-05-17T00:26:33.776Z,65.90
2023-05-17T00:27:33.803Z,59.46
2023-05-17T00:28:34.741Z,59.94
2023-05-17T00:29:33.727Z,65.90
2023-05-17T00:30:33.734Z,65.10
2023-05-17T00:31:33.717Z,63.00
2023-05-17T00:32:33.716Z,61.07
2023-05-17T00:33:33.664Z,61.87
2023-05-17T00:34:34.672Z,60.91
2023-05-17T00:35:33.673Z,60.91
2023-05-17T00:36:33.636Z,62.04
2023-05-17T00:37:33.634Z,60.59
2023-05-17T00:38:33.635Z,61.07
2023-05-17T00:39:33.610Z,61.87
2023-05-17T00:40:33.615Z,64.29
2023-05-17T00:41:33.598Z,62.52
2023-05-17T00:42:33.593Z,61.71
2023-05-17T00:43:33.696Z,62.04
2023-05-17T00:44:33.582Z,60.59
2023-05-17T00:45:33.568Z,61.07
2023-05-17T00:46:33.539Z,63.16
2023-05-17T00:47:33.611Z,61.55
2023-05-17T00:48:33.642Z,61.87
2023-05-17T00:49:33.597Z,62.68
2023-05-17T00:50:33.603Z,63.16
2023-05-17T00:51:33.573Z,60.91
2023-05-17T00:52:33.538Z,64.78
2023-05-17T00:53:33.453Z,64.94
2023-05-17T00:54:33.590Z,63.16
2023-05-17T00:55:33.426Z,62.52
2023-05-17T00:56:33.434Z,63.81
2023-05-17T00:57:33.416Z,59.46
2023-05-17T00:58:33.410Z,59.46
2023-05-17T00:59:33.467Z,63.33
2023-05-17T01:00:33.371Z,61.87
2023-05-17T01:01:33.364Z,61.23
2023-05-17T01:02:33.392Z,62.68
2023-05-17T01:03:33.417Z,63.00
2023-05-17T01:04:33.335Z,61.71
2023-05-17T01:05:33.309Z,61.39
2023-05-17T01:06:33.313Z,63.00
2023-05-17T01:07:33.285Z,62.04
2023-05-17T01:08:33.310Z,64.61
2023-05-17T01:09:33.281Z,65.10
2023-05-17T01:10:33.265Z,63.00
2023-05-17T01:11:33.253Z,62.20
2023-05-17T01:12:33.274Z,65.10
2023-05-17T01:13:33.254Z,66.87
2023-05-17T01:14:33.220Z,65.10
2023-05-17T01:15:33.282Z,63.97
2023-05-17T01:16:33.189Z,62.04
2023-05-17T01:17:33.273Z,62.04
2023-05-17T01:18:33.261Z,61.55
2023-05-17T01:19:33.206Z,61.87
2023-05-17T01:20:33.164Z,62.04
2023-05-17T01:21:33.136Z,64.61
2023-05-17T01:22:33.214Z,65.26
2023-05-17T01:23:33.114Z,64.45
2023-05-17T01:24:33.102Z,63.49
2023-05-17T01:25:34.101Z,62.20
2023-05-17T01:26:33.092Z,63.49
2023-05-17T01:27:34.085Z,64.94
2023-05-17T01:28:33.065Z,63.97
2023-05-17T01:29:33.059Z,62.04
2023-05-17T01:30:33.042Z,65.42
2023-05-17T01:31:33.170Z,63.00
2023-05-17T01:32:33.083Z,65.90
2023-05-17T01:33:33.075Z,64.94
2023-05-17T01:34:33.002Z,66.87
2023-05-17T01:35:32.992Z,62.20
2023-05-17T01:36:32.999Z,65.10
2023-05-17T01:37:33.016Z,65.10
2023-05-17T01:38:32.941Z,64.61
2023-05-17T01:39:32.945Z,63.49
2023-05-17T01:40:32.933Z,64.29
2023-05-17T01:41:32.929Z,65.58
2023-05-17T01:42:32.895Z,66.55
2023-05-17T01:43:32.898Z,65.58
2023-05-17T01:44:33.267Z,67.03
2023-05-17T01:45:34.002Z,66.23
2023-05-17T01:46:32.885Z,64.13
2023-05-17T01:47:32.945Z,66.39
2023-05-17T01:48:32.890Z,68.16
2023-05-17T01:49:32.867Z,64.61
2023-05-17T01:50:32.847Z,66.06
2023-05-17T01:51:32.806Z,66.87
2023-05-17T01:52:32.786Z,63.65
2023-05-17T01:53:32.780Z,63.33
2023-05-17T01:54:32.768Z,65.58
2023-05-17T01:55:32.767Z,68.48
2023-05-17T01:56:32.748Z,66.23
2023-05-17T01:57:32.747Z,65.10
2023-05-17T01:58:32.721Z,67.51
2023-05-17T01:59:32.752Z,67.84
2023-05-17T02:00:32.700Z,68.00
2023-05-17T02:01:32.699Z,65.90
2023-05-17T02:02:32.696Z,67.19
2023-05-17T02:03:32.776Z,66.87
2023-05-17T02:04:32.823Z,67.51
2023-05-17T02:05:32.655Z,65.90
2023-05-17T02:06:32.640Z,66.23
2023-05-17T02:07:32.651Z,66.06
2023-05-17T02:08:32.645Z,66.71
2023-05-17T02:09:32.634Z,65.42
2023-05-17T02:10:32.605Z,66.06
2023-05-17T02:11:32.599Z,63.00
2023-05-17T02:12:32.582Z,64.45
2023-05-17T02:13:32.584Z,66.23
2023-05-17T02:14:32.579Z,64.13
2023-05-17T02:15:32.561Z,66.06
2023-05-17T02:16:32.543Z,66.39
2023-05-17T02:17:32.559Z,65.26
2023-05-17T02:18:32.819Z,61.23
2023-05-17T02:19:32.617Z,62.84
2023-05-17T02:20:32.510Z,63.16
2023-05-17T02:21:32.492Z,62.52
2023-05-17T02:22:32.485Z,65.90
2023-05-17T02:23:32.500Z,68.96
2023-05-17T02:24:32.454Z,66.55
2023-05-17T02:25:32.445Z,67.68
2023-05-17T02:26:32.436Z,66.87
2023-05-17T02:27:32.452Z,66.23
2023-05-17T02:28:32.442Z,65.10
2023-05-17T02:29:32.411Z,65.26
2023-05-17T02:30:32.397Z,65.10
2023-05-17T02:31:32.386Z,66.55
2023-05-17T02:32:32.511Z,65.58
2023-05-17T02:33:32.435Z,66.87
2023-05-17T02:34:32.353Z,66.39
2023-05-17T02:35:32.413Z,68.32
2023-05-17T02:36:32.332Z,66.23
2023-05-17T02:37:32.344Z,67.68
2023-05-17T02:38:32.314Z,69.13
2023-05-17T02:39:32.297Z,68.16
2023-05-17T02:40:32.304Z,66.23
2023-05-17T02:41:32.305Z,67.19
2023-05-17T02:42:32.284Z,68.80
2023-05-17T02:43:32.264Z,67.84
2023-05-17T02:44:32.261Z,68.96
2023-05-17T02:45:32.232Z,66.23
2023-05-17T02:46:32.251Z,66.87
2023-05-17T02:47:32.332Z,67.35
2023-05-17T02:48:32.236Z,67.68
2023-05-17T02:49:32.199Z,66.87
2023-05-17T02:50:32.231Z,68.32
2023-05-17T02:51:32.175Z,68.32
2023-05-17T02:52:32.187Z,66.23
2023-05-17T02:53:32.154Z,65.26
2023-05-17T02:54:32.149Z,66.55
2023-05-17T02:55:32.218Z,66.71
2023-05-17T02:56:32.145Z,66.87
2023-05-17T02:57:32.123Z,65.58
2023-05-17T02:58:32.101Z,65.58
2023-05-17T02:59:32.156Z,66.87
2023-05-17T03:00:32.116Z,66.55
2023-05-17T03:01:32.076Z,65.42
2023-05-17T03:02:32.175Z,68.16
2023-05-17T03:03:32.356Z,68.64
2023-05-17T03:04:32.135Z,66.71
2023-05-17T03:05:32.083Z,65.90
2023-05-17T03:06:32.013Z,66.71
2023-05-17T03:07:32.186Z,65.10
2023-05-17T03:08:32.031Z,64.78
2023-05-17T03:09:32.024Z,65.42
2023-05-17T03:10:32.024Z,63.49
2023-05-17T03:11:32.012Z,66.71
2023-05-17T03:12:31.989Z,64.94
2023-05-17T03:13:31.988Z,67.51
2023-05-17T03:14:31.964Z,66.39
2023-05-17T03:15:31.929Z,64.45
2023-05-17T03:16:31.941Z,65.42
2023-05-17T03:17:31.973Z,66.87
2023-05-17T03:18:31.990Z,67.51
2023-05-17T03:20:03.804Z,67.03
2023-05-17T03:20:31.944Z,67.35
2023-05-17T03:21:31.907Z,63.97
2023-05-17T03:22:31.865Z,63.97
2023-05-17T03:23:31.919Z,66.87
2023-05-17T03:24:31.861Z,65.10
2023-05-17T03:25:31.850Z,66.71
2023-05-17T03:26:32.814Z,67.84
2023-05-17T03:27:31.844Z,67.03
2023-05-17T03:28:31.850Z,64.13
2023-05-17T03:29:31.781Z,65.26
2023-05-17T03:30:31.829Z,65.42
2023-05-17T03:31:31.768Z,66.71
2023-05-17T03:32:31.882Z,64.94
2023-05-17T03:33:31.829Z,65.90
2023-05-17T03:34:31.757Z,66.87
2023-05-17T03:35:31.730Z,66.71
2023-05-17T03:36:31.718Z,65.42
2023-05-17T03:37:31.710Z,66.39
2023-05-17T03:38:31.721Z,66.39
2023-05-17T03:39:31.755Z,68.32
2023-05-17T03:40:31.685Z,69.13
2023-05-17T03:41:31.676Z,66.06
2023-05-17T03:42:31.669Z,66.55
2023-05-17T03:43:31.689Z,67.03
2023-05-17T03:44:31.635Z,65.58
2023-05-17T03:45:31.627Z,66.87
2023-05-17T03:46:31.620Z,67.19
2023-05-17T03:47:31.647Z,68.64
2023-05-17T03:48:33.709Z,67.84
2023-05-17T03:49:31.583Z,68.80
2023-05-17T03:50:31.636Z,69.29
2023-05-17T03:51:31.566Z,68.32
2023-05-17T03:52:31.565Z,67.51
2023-05-17T03:53:31.543Z,66.71
2023-05-17T03:54:31.537Z,67.51
2023-05-17T03:55:31.636Z,66.87
2023-05-17T03:56:31.559Z,67.03
2023-05-17T03:57:31.524Z,67.84
2023-05-17T03:58:31.489Z,66.87
2023-05-17T03:59:31.489Z,68.64
2023-05-17T04:00:31.475Z,68.16
2023-05-17T04:01:31.478Z,68.96
2023-05-17T04:02:31.509Z,68.80
2023-05-17T04:03:31.493Z,67.84
2023-05-17T04:04:31.461Z,69.29
2023-05-17T04:05:31.593Z,69.13
2023-05-17T04:06:31.461Z,69.45
2023-05-17T04:07:31.396Z,68.80
2023-05-17T04:08:31.384Z,69.29
2023-05-17T04:09:31.378Z,68.32
2023-05-17T04:10:31.382Z,68.48
2023-05-17T04:11:31.421Z,68.64
2023-05-17T04:12:31.351Z,67.68
2023-05-17T04:13:31.363Z,68.48
2023-05-17T04:14:31.322Z,68.32
2023-05-17T04:15:31.347Z,67.19
2023-05-17T04:16:31.298Z,67.84
2023-05-17T04:17:31.376Z,67.68
2023-05-17T04:18:31.322Z,67.84
2023-05-17T04:19:31.325Z,66.55
2023-05-17T04:20:31.282Z,66.55
2023-05-17T04:21:31.238Z,66.39
2023-05-17T04:22:31.224Z,67.03
2023-05-17T04:23:31.218Z,67.19
2023-05-17T04:24:31.217Z,66.23
2023-05-17T04:25:31.305Z,68.00
2023-05-17T04:26:31.186Z,66.71
2023-05-17T04:27:31.246Z,66.06
2023-05-17T04:28:31.159Z,66.39
2023-05-17T04:29:31.166Z,67.35
2023-05-17T04:30:31.171Z,67.19
2023-05-17T04:31:31.126Z,66.06
2023-05-17T04:32:31.174Z,65.10
2023-05-17T04:33:31.123Z,63.81
2023-05-17T04:34:31.132Z,63.97
2023-05-17T04:35:31.126Z,65.10
2023-05-17T04:36:31.083Z,65.10
2023-05-17T04:37:31.068Z,65.90
2023-05-17T04:38:31.058Z,66.23
2023-05-17T04:39:31.062Z,66.39
2023-05-17T04:40:31.046Z,67.19
2023-05-17T04:41:31.012Z,67.35
2023-05-17T04:42:31.000Z,66.87
2023-05-17T04:43:31.144Z,67.03
2023-05-17T04:44:30.989Z,67.35
2023-05-17T04:45:30.968Z,68.16
2023-05-17T04:46:30.959Z,68.80
2023-05-17T04:47:31.009Z,69.45
2023-05-17T04:48:31.001Z,69.29
2023-05-17T04:49:30.925Z,69.45
2023-05-17T04:50:30.915Z,68.64
2023-05-17T04:51:30.901Z,69.77
2023-05-17T04:52:30.889Z,69.29
2023-05-17T04:53:30.930Z,69.13
2023-05-17T04:54:30.867Z,70.42
2023-05-17T04:55:31.027Z,69.93
2023-05-17T04:56:30.844Z,68.00
2023-05-17T04:57:30.860Z,68.96
2023-05-17T04:58:30.871Z,69.61
2023-05-17T04:59:30.819Z,70.09
2023-05-17T05:00:30.811Z,70.09
2023-05-17T05:01:30.787Z,69.13
2023-05-17T05:02:30.833Z,68.64
2023-05-17T05:03:30.808Z,70.25
2023-05-17T05:04:30.811Z,71.87
2023-05-17T05:05:30.850Z,70.90
2023-05-17T05:06:30.741Z,71.38
2023-05-17T05:07:30.735Z,71.38
2023-05-17T05:08:30.740Z,69.61
2023-05-17T05:09:30.725Z,69.61
2023-05-17T05:10:30.700Z,68.80
2023-05-17T05:11:31.411Z,69.29
2023-05-17T05:12:30.697Z,70.09
2023-05-17T05:13:30.667Z,70.09
2023-05-17T05:14:30.648Z,69.77
2023-05-17T05:15:30.922Z,70.25
2023-05-17T05:16:30.730Z,68.96
2023-05-17T05:17:30.730Z,68.16
2023-05-17T05:18:30.703Z,68.80
2023-05-17T05:19:30.670Z,68.32
2023-05-17T05:20:30.597Z,67.84
2023-05-17T05:21:30.605Z,68.32
2023-05-17T05:22:30.573Z,68.96
2023-05-17T05:23:30.556Z,69.45
2023-05-17T05:24:30.564Z,70.09
2023-05-17T05:25:30.671Z,70.74
2023-05-17T05:26:30.536Z,71.38
2023-05-17T05:27:30.525Z,71.87
2023-05-17T05:28:30.542Z,71.54
2023-05-17T05:29:30.519Z,70.42
2023-05-17T05:30:30.548Z,70.90
2023-05-17T05:31:30.550Z,70.74
2023-05-17T05:32:30.490Z,69.61
2023-05-17T05:33:30.547Z,70.25
2023-05-17T05:34:30.468Z,71.22
2023-05-17T05:35:30.786Z,71.38
2023-05-17T05:36:30.412Z,70.90
2023-05-17T05:37:30.420Z,71.70
2023-05-17T05:38:30.409Z,69.13
2023-05-17T05:39:30.392Z,69.77
2023-05-17T05:40:30.634Z,71.06
2023-05-17T05:41:30.362Z,70.42
2023-05-17T05:42:30.368Z,70.90
2023-05-17T05:43:30.373Z,70.58
2023-05-17T05:44:30.998Z,70.25
2023-05-17T05:45:30.350Z,70.25
2023-05-17T05:46:30.320Z,69.61
2023-05-17T05:47:30.448Z,68.00
2023-05-17T05:48:30.485Z,70.09
2023-05-17T05:49:30.298Z,69.13
2023-05-17T05:50:30.502Z,68.32
2023-05-17T05:51:30.274Z,69.93
2023-05-17T05:52:30.258Z,70.58
2023-05-17T05:53:30.268Z,70.74
2023-05-17T05:54:30.255Z,70.74
2023-05-17T05:55:30.224Z,70.09
2023-05-17T05:56:30.217Z,68.96
2023-05-17T05:57:30.209Z,70.09
2023-05-17T05:58:30.232Z,70.09
2023-05-17T05:59:30.258Z,68.48
2023-05-17T06:00:30.340Z,69.45
2023-05-17T06:01:30.166Z,70.09
2023-05-17T06:02:30.243Z,69.45
2023-05-17T06:03:30.589Z,68.16
2023-05-17T06:04:43.778Z,67.35
2023-05-17T06:05:32.263Z,70.90
2023-05-17T06:06:30.345Z,68.64
2023-05-17T06:07:30.125Z,69.29
2023-05-17T06:08:30.179Z,67.19
2023-05-17T06:09:30.117Z,69.29
2023-05-17T06:10:30.485Z,68.48
2023-05-17T06:11:30.080Z,70.42
2023-05-17T06:12:30.088Z,68.96
2023-05-17T06:13:30.080Z,68.80
2023-05-17T06:14:30.047Z,69.45
2023-05-17T06:15:30.039Z,69.45
2023-05-17T06:16:30.053Z,69.93
2023-05-17T06:17:30.262Z,68.48
2023-05-17T06:18:30.026Z,67.03
2023-05-17T06:19:30.131Z,70.42
2023-05-17T06:20:30.179Z,70.74
2023-05-17T06:21:29.978Z,69.61
2023-05-17T06:22:30.002Z,69.29
2023-05-17T06:23:29.971Z,71.38
2023-05-17T06:24:29.943Z,70.25
2023-05-17T06:25:29.943Z,69.93
2023-05-17T06:26:29.952Z,70.90
2023-05-17T06:27:29.945Z,70.58
2023-05-17T06:28:29.933Z,71.22
2023-05-17T06:29:29.918Z,69.45
2023-05-17T06:30:30.140Z,70.25
2023-05-17T06:31:29.893Z,71.38
2023-05-17T06:32:29.877Z,70.58
2023-05-17T06:33:29.894Z,69.93
2023-05-17T06:34:29.841Z,68.64
2023-05-17T06:35:33.196Z,69.45
2023-05-17T06:36:32.408Z,70.25
2023-05-17T06:37:29.817Z,68.48
2023-05-17T06:38:29.807Z,69.13
2023-05-17T06:39:29.790Z,69.45
2023-05-17T06:40:29.780Z,70.42
2023-05-17T06:41:29.786Z,67.51
2023-05-17T06:42:29.767Z,68.96
2023-05-17T06:43:29.742Z,68.96
2023-05-17T06:44:29.749Z,67.35
2023-05-17T06:45:29.764Z,67.84
2023-05-17T06:46:29.725Z,67.03
2023-05-17T06:47:29.818Z,68.96
2023-05-17T06:48:29.795Z,68.64
2023-05-17T06:49:29.692Z,70.74
2023-05-17T06:50:30.069Z,70.09
2023-05-17T06:51:29.671Z,68.80
2023-05-17T06:52:29.678Z,68.80
2023-05-17T06:53:29.650Z,69.29
2023-05-17T06:54:29.649Z,69.61
2023-05-17T06:55:31.515Z,69.13
2023-05-17T06:56:30.630Z,69.29
2023-05-17T06:57:30.397Z,68.16
2023-05-17T06:58:29.612Z,67.03
2023-05-17T06:59:29.619Z,68.64
2023-05-17T07:00:29.778Z,69.93
2023-05-17T07:01:29.585Z,69.61
2023-05-17T07:02:29.669Z,69.77
2023-05-17T07:03:29.711Z,66.55
2023-05-17T07:04:29.693Z,67.03
2023-05-17T07:05:29.793Z,67.84
2023-05-17T07:06:29.738Z,66.23
2023-05-17T07:07:29.689Z,67.84
2023-05-17T07:08:29.667Z,68.64
2023-05-17T07:09:29.548Z,67.68
2023-05-17T07:10:29.525Z,71.06
2023-05-17T07:11:29.479Z,70.42
2023-05-17T07:12:29.474Z,70.42
2023-05-17T07:13:29.469Z,67.51
2023-05-17T07:14:29.488Z,67.19
2023-05-17T07:15:29.594Z,69.77
2023-05-17T07:16:29.426Z,67.35
2023-05-17T07:17:29.461Z,69.29
2023-05-17T07:18:29.605Z,68.16
2023-05-17T07:19:29.537Z,69.45
2023-05-17T07:20:29.404Z,71.22
2023-05-17T07:21:29.393Z,69.13
2023-05-17T07:22:29.371Z,68.96
2023-05-17T07:23:29.640Z,70.09
2023-05-17T07:24:29.348Z,70.74
2023-05-17T07:25:29.487Z,70.58
2023-05-17T07:26:29.331Z,69.93
2023-05-17T07:27:29.325Z,70.58
2023-05-17T07:28:29.430Z,68.64
2023-05-17T07:29:29.321Z,70.90
2023-05-17T07:30:29.311Z,66.06
2023-05-17T07:31:29.314Z,66.06
2023-05-17T07:32:29.333Z,69.45
2023-05-17T07:33:29.284Z,68.96
2023-05-17T07:34:29.270Z,69.45
2023-05-17T07:35:29.465Z,67.84
2023-05-17T07:36:29.380Z,69.61
2023-05-17T07:37:29.259Z,67.19
2023-05-17T07:38:29.216Z,68.64
2023-05-17T07:39:29.405Z,69.93
2023-05-17T07:40:29.194Z,68.80
2023-05-17T07:41:29.199Z,69.77
2023-05-17T07:42:29.189Z,69.45
2023-05-17T07:43:29.167Z,69.45
2023-05-17T07:44:29.160Z,70.25
2023-05-17T07:45:29.331Z,69.29
2023-05-17T07:46:29.204Z,68.32
2023-05-17T07:47:29.279Z,68.80
2023-05-17T07:48:29.231Z,68.16
2023-05-17T07:49:29.195Z,70.58
2023-05-17T07:50:29.108Z,68.80
2023-05-17T07:51:29.967Z,68.00
2023-05-17T07:52:29.092Z,68.48
2023-05-17T07:53:29.075Z,68.48
2023-05-17T07:54:29.072Z,69.29
2023-05-17T07:55:29.315Z,70.58
2023-05-17T07:56:29.063Z,69.45
2023-05-17T07:57:29.039Z,68.64
2023-05-17T07:58:29.047Z,69.29
2023-05-17T07:59:29.027Z,67.68
2023-05-17T08:00:29.087Z,69.13
2023-05-17T08:01:29.044Z,67.35
2023-05-17T08:02:28.995Z,67.51
2023-05-17T08:03:28.965Z,68.16
2023-05-17T08:04:28.978Z,69.13
2023-05-17T08:05:29.250Z,70.42
2023-05-17T08:06:28.997Z,69.77
2023-05-17T08:07:28.934Z,69.93
2023-05-17T08:08:28.918Z,68.64
2023-05-17T08:09:28.915Z,67.68
2023-05-17T08:10:29.941Z,69.61
2023-05-17T08:11:29.095Z,69.13
2023-05-17T08:12:28.888Z,69.13
2023-05-17T08:13:28.887Z,68.32
2023-05-17T08:14:28.866Z,70.25
2023-05-17T08:15:29.079Z,67.19
2023-05-17T08:16:28.852Z,66.39
2023-05-17T08:17:28.885Z,67.84
2023-05-17T08:18:28.919Z,66.87
2023-05-17T08:19:28.962Z,69.13
2023-05-17T08:20:28.859Z,69.93
2023-05-17T08:21:28.804Z,67.19
2023-05-17T08:22:28.809Z,68.80
2023-05-17T08:23:28.779Z,68.64
2023-05-17T08:24:28.802Z,67.84
2023-05-17T08:25:29.116Z,67.84
2023-05-17T08:26:28.761Z,68.48
2023-05-17T08:27:28.745Z,70.42
2023-05-17T08:28:28.747Z,68.64
2023-05-17T08:29:28.745Z,68.00
2023-05-17T08:30:29.668Z,68.48
2023-05-17T08:31:28.721Z,71.06
2023-05-17T08:32:28.726Z,70.09
2023-05-17T08:33:28.785Z,70.25
2023-05-17T08:34:28.731Z,69.61
2023-05-17T08:35:30.764Z,69.45
2023-05-17T08:36:28.680Z,69.77
2023-05-17T08:37:28.646Z,70.25
2023-05-17T08:38:28.743Z,69.29
2023-05-17T08:39:28.645Z,70.09
2023-05-17T08:40:28.821Z,70.09
2023-05-17T08:41:29.020Z,68.16
2023-05-17T08:42:28.604Z,68.96
2023-05-17T08:43:28.745Z,70.42
2023-05-17T08:44:28.642Z,71.38
2023-05-17T08:45:28.792Z,69.93
2023-05-17T08:46:28.566Z,68.64
2023-05-17T08:47:28.578Z,69.77
2023-05-17T08:48:28.619Z,69.77
2023-05-17T08:49:28.549Z,68.80
2023-05-17T08:50:28.859Z,68.48
2023-05-17T08:51:28.504Z,66.39
2023-05-17T08:52:28.724Z,67.51
2023-05-17T08:53:28.567Z,67.68
2023-05-17T08:54:28.474Z,67.84
2023-05-17T08:55:28.462Z,67.35
2023-05-17T08:56:28.464Z,68.80
2023-05-17T08:57:28.476Z,69.77
2023-05-17T08:58:28.450Z,69.61
2023-05-17T08:59:28.434Z,70.42
2023-05-17T09:00:28.784Z,69.77
2023-05-17T09:01:30.655Z,68.48
2023-05-17T09:02:28.490Z,68.00
2023-05-17T09:03:28.415Z,68.48
2023-05-17T09:04:28.441Z,68.48
2023-05-17T09:05:28.393Z,70.42
2023-05-17T09:06:28.391Z,68.16
2023-05-17T09:07:28.364Z,69.77
2023-05-17T09:08:28.375Z,67.03
2023-05-17T09:09:28.347Z,66.71
2023-05-17T09:10:28.530Z,70.25
2023-05-17T09:11:28.336Z,68.16
2023-05-17T09:12:28.304Z,69.77
2023-05-17T09:13:28.292Z,69.61
2023-05-17T09:14:28.277Z,68.96
2023-05-17T09:15:28.301Z,69.77
2023-05-17T09:16:28.292Z,69.61
2023-05-17T09:17:28.291Z,70.42
2023-05-17T09:18:28.325Z,69.77
2023-05-17T09:19:42.273Z,68.32
2023-05-17T09:20:28.415Z,68.64
2023-05-17T09:21:28.229Z,68.48
2023-05-17T09:22:28.207Z,68.16
2023-05-17T09:23:28.186Z,68.00
2023-05-17T09:24:28.185Z,67.84
2023-05-17T09:25:28.165Z,69.93
2023-05-17T09:26:28.178Z,67.51
2023-05-17T09:27:28.144Z,68.00
2023-05-17T09:28:28.137Z,67.68
2023-05-17T09:29:28.157Z,66.39
2023-05-17T09:30:28.360Z,67.68
2023-05-17T09:31:28.179Z,67.84
2023-05-17T09:32:28.119Z,68.00
2023-05-17T09:33:28.136Z,68.48
2023-05-17T09:34:28.114Z,67.35
2023-05-17T09:35:28.358Z,66.55
2023-05-17T09:36:28.067Z,67.19
2023-05-17T09:37:28.048Z,67.19
2023-05-17T09:38:28.050Z,68.96
2023-05-17T09:39:28.088Z,66.23
2023-05-17T09:40:28.008Z,67.51
2023-05-17T09:41:28.009Z,68.16
2023-05-17T09:42:27.995Z,66.55
2023-05-17T09:43:27.990Z,67.03
2023-05-17T09:44:28.039Z,66.87
2023-05-17T09:45:28.046Z,69.45
2023-05-17T09:46:28.013Z,68.64
2023-05-17T09:47:27.996Z,67.03
2023-05-17T09:48:28.108Z,67.68
2023-05-17T09:49:27.965Z,69.93
2023-05-17T09:50:27.959Z,69.13
2023-05-17T09:51:27.912Z,69.29
2023-05-17T09:52:27.945Z,68.80
2023-05-17T09:53:27.998Z,67.35
2023-05-17T09:54:27.869Z,66.71
2023-05-17T09:55:28.307Z,69.45
2023-05-17T09:56:27.848Z,68.96
2023-05-17T09:57:27.854Z,68.48
2023-05-17T09:58:27.858Z,69.13
2023-05-17T09:59:27.844Z,68.96
2023-05-17T10:00:27.870Z,68.00
2023-05-17T10:01:27.811Z,67.35
2023-05-17T10:02:27.843Z,68.32
2023-05-17T10:03:27.881Z,68.00
2023-05-17T10:04:27.789Z,69.13
2023-05-17T10:05:28.090Z,67.51
2023-05-17T10:06:39.004Z,70.58
2023-05-17T10:07:29.764Z,69.13
2023-05-17T10:08:27.737Z,69.13
2023-05-17T10:09:27.741Z,67.35
2023-05-17T10:10:27.714Z,69.29
2023-05-17T10:11:27.708Z,68.32
2023-05-17T10:12:27.702Z,66.06
2023-05-17T10:13:27.717Z,69.61
2023-05-17T10:14:27.826Z,70.42
2023-05-17T10:15:27.853Z,68.96
2023-05-17T10:16:27.658Z,68.96
2023-05-17T10:17:27.679Z,69.93
2023-05-17T10:18:27.756Z,69.77
2023-05-17T10:19:27.808Z,68.48
2023-05-17T10:20:27.662Z,68.16
2023-05-17T10:21:27.631Z,67.03
2023-05-17T10:22:27.591Z,70.09
2023-05-17T10:23:27.598Z,69.61
2023-05-17T10:24:27.577Z,68.32
2023-05-17T10:25:27.828Z,68.48
2023-05-17T10:26:28.572Z,67.84
2023-05-17T10:27:27.570Z,67.35
2023-05-17T10:28:28.530Z,68.80
2023-05-17T10:29:27.526Z,69.13
2023-05-17T10:30:27.541Z,68.00
2023-05-17T10:31:27.512Z,65.10
2023-05-17T10:32:27.629Z,65.42
2023-05-17T10:33:27.572Z,65.42
2023-05-17T10:34:27.482Z,65.42
2023-05-17T10:35:27.669Z,67.03
2023-05-17T10:36:27.454Z,68.96
2023-05-17T10:37:27.482Z,67.51
2023-05-17T10:38:38.631Z,65.74
2023-05-17T10:39:29.419Z,64.61
2023-05-17T10:40:27.422Z,66.87
2023-05-17T10:41:27.410Z,65.10
2023-05-17T10:42:27.429Z,64.61
2023-05-17T10:43:27.386Z,66.87
2023-05-17T10:44:27.378Z,68.00
2023-05-17T10:45:27.812Z,66.55
2023-05-17T10:46:27.352Z,67.35
2023-05-17T10:47:27.370Z,68.32
2023-05-17T10:48:27.366Z,66.55
2023-05-17T10:49:27.545Z,64.78
2023-05-17T10:50:27.586Z,66.23
2023-05-17T10:51:27.303Z,66.23
2023-05-17T10:52:27.328Z,67.35
2023-05-17T10:53:27.332Z,67.84
2023-05-17T10:54:27.315Z,67.03
2023-05-17T10:55:27.440Z,65.90
2023-05-17T10:56:27.276Z,67.03
2023-05-17T10:57:27.776Z,66.39
2023-05-17T10:58:27.248Z,65.26
2023-05-17T10:59:27.254Z,65.74
2023-05-17T11:00:27.399Z,66.55
2023-05-17T11:01:27.206Z,67.03
2023-05-17T11:02:27.271Z,67.03
2023-05-17T11:03:27.214Z,68.80
2023-05-17T11:04:27.223Z,67.84
2023-05-17T11:05:27.786Z,68.00
2023-05-17T11:06:27.199Z,65.90
2023-05-17T11:07:27.269Z,64.13
2023-05-17T11:08:27.130Z,65.10
2023-05-17T11:09:27.142Z,63.33
2023-05-17T11:10:27.236Z,63.00
2023-05-17T11:11:27.127Z,62.68
2023-05-17T11:12:27.102Z,62.52
2023-05-17T11:13:27.086Z,62.68
2023-05-17T11:14:27.081Z,63.33
2023-05-17T11:15:27.147Z,63.00
2023-05-17T11:16:27.086Z,62.20
2023-05-17T11:17:27.099Z,62.68
2023-05-17T11:18:31.116Z,62.36
2023-05-17T11:19:29.103Z,62.52
2023-05-17T11:20:27.373Z,63.49
2023-05-17T11:21:27.030Z,61.87
2023-05-17T11:22:27.000Z,62.04
2023-05-17T11:23:26.989Z,63.65
2023-05-17T11:24:27.016Z,63.97
2023-05-17T11:25:27.043Z,63.65
2023-05-17T11:26:26.970Z,63.49
2023-05-17T11:27:26.975Z,62.68
2023-05-17T11:28:26.951Z,63.16
2023-05-17T11:29:26.957Z,62.36
2023-05-17T11:30:27.053Z,62.36
2023-05-17T11:31:26.953Z,63.65
2023-05-17T11:32:26.928Z,64.29
2023-05-17T11:33:33.772Z,63.16
2023-05-17T11:34:28.961Z,61.55
2023-05-17T11:35:26.881Z,62.68
2023-05-17T11:36:26.883Z,63.00
2023-05-17T11:37:26.869Z,63.16
2023-05-17T11:38:26.853Z,63.97
2023-05-17T11:39:26.878Z,62.68
2023-05-17T11:40:26.896Z,62.04
2023-05-17T11:41:27.424Z,62.68
2023-05-17T11:42:27.816Z,63.65
2023-05-17T11:43:26.825Z,64.78
2023-05-17T11:44:26.802Z,64.45
2023-05-17T11:45:26.908Z,65.74
2023-05-17T11:46:26.780Z,65.58
2023-05-17T11:47:26.822Z,65.58
2023-05-17T11:48:26.899Z,66.23
2023-05-17T11:49:34.934Z,65.42
2023-05-17T11:50:29.021Z,65.10
2023-05-17T11:51:26.720Z,64.61
2023-05-17T11:52:27.434Z,63.16
2023-05-17T11:53:26.754Z,63.49
2023-05-17T11:54:26.784Z,62.68
2023-05-17T11:55:27.088Z,61.87
2023-05-17T11:56:39.475Z,62.36
2023-05-17T11:57:28.660Z,62.68
2023-05-17T11:58:26.656Z,62.68
2023-05-17T11:59:26.646Z,62.20
2023-05-17T12:00:26.933Z,61.39
2023-05-17T12:01:26.635Z,63.16
2023-05-17T12:02:26.644Z,64.45
2023-05-17T12:03:26.602Z,65.26
2023-05-17T12:04:26.640Z,63.65
2023-05-17T12:05:26.597Z,62.04
2023-05-17T12:06:26.611Z,62.36
2023-05-17T12:07:26.558Z,64.13
2023-05-17T12:08:26.567Z,63.65
2023-05-17T12:09:26.553Z,62.04
2023-05-17T12:10:26.678Z,62.84
2023-05-17T12:11:27.561Z,62.84
2023-05-17T12:12:26.515Z,66.55
2023-05-17T12:13:26.501Z,62.68
2023-05-17T12:14:26.517Z,62.52
2023-05-17T12:15:26.485Z,62.84
2023-05-17T12:16:26.471Z,62.84
2023-05-17T12:17:26.536Z,63.00
2023-05-17T12:18:26.575Z,63.97
2023-05-17T12:19:26.566Z,63.65
2023-05-17T12:20:26.571Z,64.13
2023-05-17T12:21:26.428Z,64.45
2023-05-17T12:22:26.405Z,63.65
2023-05-17T12:23:26.499Z,63.97
2023-05-17T12:24:26.460Z,63.81
2023-05-17T12:25:26.386Z,62.68
2023-05-17T12:26:26.380Z,63.65
2023-05-17T12:27:26.493Z,61.07
2023-05-17T12:28:26.361Z,61.55
2023-05-17T12:29:26.352Z,62.68
2023-05-17T12:30:26.412Z,64.13
2023-05-17T12:31:26.359Z,64.45
2023-05-17T12:32:26.500Z,64.13
2023-05-17T12:33:26.439Z,62.68
2023-05-17T12:34:26.306Z,63.65
2023-05-17T12:35:26.293Z,62.36
2023-05-17T12:36:26.270Z,61.07
2023-05-17T12:37:26.292Z,62.68
2023-05-17T12:38:26.255Z,62.20
2023-05-17T12:39:26.268Z,61.07
2023-05-17T12:40:26.317Z,62.36
2023-05-17T12:41:26.257Z,60.42
2023-05-17T12:42:26.231Z,61.71
2023-05-17T12:43:26.205Z,61.39
2023-05-17T12:44:26.189Z,60.91
2023-05-17T12:45:26.182Z,60.75
2023-05-17T12:46:26.190Z,61.55
2023-05-17T12:47:26.270Z,60.91
2023-05-17T12:48:26.208Z,60.91
2023-05-17T12:49:26.153Z,61.55
2023-05-17T12:50:26.274Z,62.84
2023-05-17T12:51:26.144Z,60.59
2023-05-17T12:52:26.125Z,62.04